createdAt,value
2023-02-23T00:02:14.187Z,12.34
2023-02-23T00:07:20.100Z,12.31
2023-02-23T00:12:24.113Z,11.60
2023-02-23T00:17:26.791Z,11.66
2023-02-23T00:22:29.209Z,11.27
2023-02-23T00:27:31.682Z,11.51
2023-02-23T00:32:35.225Z,11.08
2023-02-23T00:37:38.252Z,10.95
2023-02-23T00:42:45.278Z,10.86
2023-02-23T00:47:48.963Z,10.76
2023-02-23T00:52:51.484Z,10.66
2023-02-23T00:57:53.923Z,10.77
2023-02-23T01:02:56.391Z,10.55
2023-02-23T01:07:58.831Z,10.39
2023-02-23T01:13:01.490Z,10.42
2023-02-23T01:18:05.574Z,10.54
2023-02-23T01:23:10.697Z,10.64
2023-02-23T01:28:14.959Z,10.38
2023-02-23T01:33:17.578Z,10.21
2023-02-23T01:38:20.053Z,10.26
2023-02-23T01:43:26.393Z,10.27
2023-02-23T01:48:35.347Z,10.27
2023-02-23T01:53:44.453Z,10.68
2023-02-23T01:58:52.989Z,10.50
2023-02-23T02:03:58.580Z,10.91
2023-02-23T02:09:07.331Z,11.27
2023-02-23T02:14:17.399Z,11.34
2023-02-23T02:19:37.923Z,11.42
2023-02-23T02:25:12.652Z,11.24
2023-02-23T02:30:24.108Z,10.86
2023-02-23T02:35:47.450Z,10.86
2023-02-23T02:41:04.436Z,10.87
2023-02-23T02:46:18.296Z,10.99
2023-02-23T02:51:49.074Z,11.12
2023-02-23T02:56:57.828Z,11.03
2023-02-23T03:02:21.003Z,11.10
2023-02-23T03:07:52.762Z,11.04
2023-02-23T03:13:34.963Z,10.73
2023-02-23T03:19:09.246Z,10.55
2023-02-23T03:24:50.349Z,10.49
2023-02-23T03:30:24.670Z,10.66
2023-02-23T03:35:58.631Z,10.73
2023-02-23T03:41:21.223Z,10.67
2023-02-23T03:46:46.002Z,10.75
2023-02-23T03:52:12.213Z,10.93
2023-02-23T03:57:38.275Z,10.89
2023-02-23T04:03:02.143Z,10.73
2023-02-23T04:08:28.013Z,10.53
2023-02-23T04:13:34.387Z,10.53
2023-02-23T04:18:39.894Z,10.51
2023-02-23T04:23:43.519Z,10.76
2023-02-23T04:28:46.557Z,10.94
2023-02-23T04:33:49.054Z,11.32
2023-02-23T04:38:51.634Z,11.57
2023-02-23T04:43:54.092Z,11.65
2023-02-23T04:48:56.604Z,11.69
2023-02-23T04:53:59.638Z,11.79
2023-02-23T04:59:02.388Z,11.67
2023-02-23T05:04:05.004Z,11.80
2023-02-23T05:09:07.429Z,11.86
2023-02-23T05:14:12.600Z,11.88
2023-02-23T05:19:15.230Z,11.74
2023-02-23T05:24:19.229Z,11.53
2023-02-23T05:29:21.869Z,11.44
2023-02-23T05:34:24.668Z,11.48
2023-02-23T05:39:27.225Z,11.43
2023-02-23T05:44:30.000Z,11.43
2023-02-23T05:49:32.507Z,11.40
2023-02-23T05:54:35.003Z,11.40
2023-02-23T05:59:37.554Z,11.37
2023-02-23T06:04:40.777Z,11.37
2023-02-23T06:09:44.596Z,11.37
2023-02-23T06:14:47.487Z,11.46
2023-02-23T06:19:49.959Z,11.38
2023-02-23T06:24:52.425Z,11.28
2023-02-23T06:29:55.129Z,11.43
2023-02-23T06:34:57.791Z,11.57
2023-02-23T06:40:00.675Z,11.57
2023-02-23T06:45:04.355Z,11.53
2023-02-23T06:50:08.824Z,11.60
2023-02-23T06:55:13.291Z,11.61
2023-02-23T07:00:17.454Z,11.73
2023-02-23T07:05:19.940Z,11.43
2023-02-23T07:10:22.709Z,11.40
2023-02-23T07:15:25.698Z,11.23
2023-02-23T07:20:28.323Z,11.27
2023-02-23T07:25:31.440Z,11.42
2023-02-23T07:30:33.891Z,11.48
2023-02-23T07:35:36.363Z,11.54
2023-02-23T07:40:39.687Z,11.86
2023-02-23T07:45:45.540Z,12.00
2023-02-23T07:50:48.968Z,12.15
2023-02-23T07:56:01.364Z,12.34
2023-02-23T08:01:04.459Z,12.45
2023-02-23T08:06:07.407Z,12.49
2023-02-23T08:11:10.509Z,12.50
2023-02-23T08:16:13.169Z,12.68
2023-02-23T08:21:15.879Z,12.87
2023-02-23T08:26:18.505Z,12.93
2023-02-23T08:31:24.414Z,12.90
2023-02-23T08:36:27.701Z,13.06
2023-02-23T08:41:30.330Z,13.23
2023-02-23T08:46:33.362Z,13.21
2023-02-23T08:51:35.870Z,13.24
2023-02-23T08:56:39.080Z,13.28
2023-02-23T09:01:43.802Z,13.33
2023-02-23T09:06:47.696Z,13.32
2023-02-23T09:11:50.369Z,13.42
2023-02-23T09:16:53.006Z,13.52
2023-02-23T09:21:55.195Z,13.50
2023-02-23T09:26:57.881Z,13.58
2023-02-23T09:32:00.360Z,13.65
2023-02-23T09:37:03.571Z,13.61
2023-02-23T09:42:32.212Z,13.61
2023-02-23T09:47:55.755Z,13.74
2023-02-23T09:53:40.882Z,13.87
2023-02-23T09:58:43.450Z,14.41
2023-02-23T10:04:36.062Z,15.52
2023-02-23T10:10:28.174Z,16.42
2023-02-23T10:16:22.166Z,16.38
2023-02-23T10:21:45.478Z,16.31
2023-02-23T10:27:00.884Z,16.08
2023-02-23T10:32:15.209Z,15.62
2023-02-23T10:37:20.044Z,15.51
2023-02-23T10:42:32.082Z,15.52
2023-02-23T10:47:36.613Z,15.44
2023-02-23T10:52:49.129Z,15.76
2023-02-23T10:58:08.398Z,15.95
2023-02-23T11:03:25.504Z,16.24
2023-02-23T11:08:34.603Z,16.06
2023-02-23T11:13:49.824Z,15.89
2023-02-23T11:19:04.990Z,15.94
2023-02-23T11:24:31.070Z,16.16
2023-02-23T11:29:46.957Z,16.19
2023-02-23T11:35:21.176Z,16.58
2023-02-23T11:40:31.883Z,16.51
2023-02-23T11:45:46.188Z,16.24
2023-02-23T11:50:50.516Z,16.61
2023-02-23T11:55:58.050Z,17.40
2023-02-23T12:01:17.331Z,17.39
2023-02-23T12:06:39.234Z,16.73
2023-02-23T12:11:48.777Z,16.03
2023-02-23T12:17:00.392Z,15.96
2023-02-23T12:22:29.585Z,16.08
2023-02-23T12:27:45.308Z,15.96
2023-02-23T12:33:21.699Z,15.63
2023-02-23T12:38:59.830Z,15.56
2023-02-23T12:44:37.976Z,15.56
2023-02-23T12:50:14.525Z,15.62
2023-02-23T12:55:30.056Z,15.80
2023-02-23T13:00:58.438Z,15.92
2023-02-23T13:06:23.586Z,15.90
2023-02-23T13:11:53.473Z,15.90
2023-02-23T13:17:33.103Z,15.77
2023-02-23T13:22:43.463Z,15.49
2023-02-23T13:27:55.364Z,15.43
2023-02-23T13:32:58.394Z,15.37
2023-02-23T13:38:32.305Z,15.29
2023-02-23T13:43:49.710Z,15.18
2023-02-23T13:49:28.575Z,15.14
2023-02-23T13:54:36.644Z,15.08
2023-02-23T13:59:45.648Z,15.04
2023-02-23T14:04:48.017Z,14.97
2023-02-23T14:10:06.709Z,14.88
2023-02-23T14:15:40.669Z,14.89
2023-02-23T14:20:53.179Z,14.87
2023-02-23T14:26:28.801Z,14.92
2023-02-23T14:31:31.997Z,14.93
2023-02-23T14:36:38.551Z,14.93
2023-02-23T14:41:51.480Z,14.91
2023-02-23T14:47:08.552Z,14.91
2023-02-23T14:52:36.144Z,14.84
2023-02-23T14:57:43.942Z,14.86
2023-02-23T15:03:05.805Z,14.80
2023-02-23T15:08:17.346Z,14.77
2023-02-23T15:18:44.280Z,14.78
2023-02-23T15:23:51.148Z,14.88
2023-02-23T15:28:53.774Z,15.10
2023-02-23T15:33:57.798Z,15.09
2023-02-23T15:39:05.233Z,15.00
2023-02-23T15:44:27.526Z,14.74
2023-02-23T15:49:37.981Z,14.66
2023-02-23T15:55:06.507Z,14.60
2023-02-23T16:00:32.743Z,14.41
2023-02-23T16:05:46.971Z,14.41
2023-02-23T16:10:57.751Z,14.41
2023-02-23T16:16:00.232Z,14.28
2023-02-23T16:21:04.865Z,14.26
2023-02-23T16:26:57.492Z,14.23
2023-02-23T16:32:04.134Z,14.21
2023-02-23T16:37:28.013Z,14.20
2023-02-23T16:42:36.030Z,14.13
2023-02-23T16:47:49.997Z,14.08
2023-02-23T16:52:53.497Z,14.04
2023-02-23T16:58:02.646Z,13.94
2023-02-23T17:03:16.464Z,13.88
2023-02-23T17:08:26.155Z,13.90
2023-02-23T17:13:33.290Z,13.71
2023-02-23T17:18:39.589Z,13.68
2023-02-23T17:23:48.380Z,13.77
2023-02-23T17:28:51.874Z,13.82
2023-02-23T17:33:55.389Z,13.96
2023-02-23T17:39:00.436Z,14.03
2023-02-23T17:44:05.786Z,14.08
2023-02-23T17:49:07.860Z,14.10
2023-02-23T17:54:10.962Z,13.92
2023-02-23T17:59:13.487Z,13.94
2023-02-23T18:04:16.653Z,13.93
2023-02-23T18:09:18.798Z,13.92
2023-02-23T18:14:20.881Z,13.87
2023-02-23T18:19:23.774Z,13.34
2023-02-23T18:24:32.409Z,12.78
2023-02-23T18:29:36.257Z,12.64
2023-02-23T18:34:38.717Z,12.78
2023-02-23T18:39:41.473Z,12.92
2023-02-23T18:44:44.761Z,12.94
2023-02-23T18:49:47.675Z,12.96
2023-02-23T18:54:51.358Z,12.73
2023-02-23T18:59:53.901Z,12.42
2023-02-23T19:05:02.791Z,12.59
2023-02-23T19:10:09.536Z,12.40
2023-02-23T19:15:12.790Z,12.23
2023-02-23T19:20:15.287Z,12.09
2023-02-23T19:25:17.883Z,12.10
2023-02-23T19:30:20.446Z,12.23
2023-02-23T19:35:22.912Z,12.28
2023-02-23T19:40:29.262Z,12.27
2023-02-23T19:45:31.786Z,12.28
2023-02-23T19:50:36.072Z,12.42
2023-02-23T19:55:41.801Z,12.64
2023-02-23T20:00:47.295Z,12.83
2023-02-23T20:05:49.460Z,12.89
2023-02-23T20:10:52.614Z,13.00
2023-02-23T20:16:10.991Z,12.95
2023-02-23T20:21:17.571Z,12.56
2023-02-23T20:26:26.632Z,12.37
2023-02-23T20:31:35.185Z,12.36
2023-02-23T20:36:37.750Z,12.63
2023-02-23T20:41:43.471Z,12.60
2023-02-23T20:46:45.732Z,12.40
2023-02-23T20:51:48.696Z,12.23
2023-02-23T20:56:58.935Z,12.33
2023-02-23T21:02:01.838Z,12.26
2023-02-23T21:07:36.666Z,12.27
2023-02-23T21:12:38.797Z,12.49
2023-02-23T21:17:42.306Z,12.55
2023-02-23T21:22:44.824Z,12.75
2023-02-23T21:27:48.256Z,12.80
2023-02-23T21:32:53.233Z,12.57
2023-02-23T21:37:56.913Z,12.59
2023-02-23T21:43:00.568Z,12.78
2023-02-23T21:48:04.487Z,12.77
2023-02-23T21:53:07.712Z,12.80
2023-02-23T21:58:10.119Z,12.76
2023-02-23T22:03:12.618Z,12.65
2023-02-23T22:08:15.907Z,12.54
2023-02-23T22:13:18.090Z,12.28
2023-02-23T22:18:20.193Z,12.35
2023-02-23T22:23:22.389Z,12.71
2023-02-23T22:28:25.991Z,12.72
2023-02-23T22:33:28.061Z,12.73
2023-02-23T22:38:30.868Z,12.82
2023-02-23T22:43:34.401Z,12.61
2023-02-23T22:48:36.766Z,12.47
2023-02-23T22:53:39.672Z,12.45
2023-02-23T22:58:42.424Z,12.54
2023-02-23T23:03:46.695Z,12.63
2023-02-23T23:08:55.739Z,12.76
2023-02-23T23:14:03.253Z,12.69
2023-02-23T23:19:12.444Z,12.33
2023-02-23T23:24:15.674Z,12.08
2023-02-23T23:29:18.179Z,11.99
2023-02-23T23:34:21.803Z,11.82
2023-02-23T23:39:26.346Z,11.84
2023-02-23T23:44:29.604Z,11.99
2023-02-23T23:49:41.073Z,12.09
2023-02-23T23:54:43.702Z,12.17
2023-02-23T23:59:47.522Z,12.30
